Time;durP1;ratioP1;P1;durP2;ratioP2;P2;SDS_P1;SDS_P2;PMS_P1;PMS_P2;Temp;Humidity;BMP_temperature;BMP_pressure;BME280_temperature;BME280_humidity;BME280_pressure;Samples;Min_cycle;Max_cycle;Signal;HPM_P1;HPM_P2
2024/02/19 05:16:46;;;;;;;;;11.50;10.00;;;;;;;;6489207;39;15790;-61
2024/02/19 05:22:50;;;;;;;;;9.00;9.00;;;;;;;;6491773;39;8918;-60
2024/02/19 05:28:54;;;;;;;;;11.25;10.25;;;;;;;;6490579;46;8868;-61
2024/02/19 05:34:58;;;;;;;;;10.00;9.75;;;;;;;;6489544;31;8919;-60
2024/02/19 05:41:03;;;;;;;;;8.50;8.50;;;;;;;;6458333;36;5002149;-59
2024/02/19 05:47:06;;;;;;;;;12.75;12.75;;;;;;;;6491902;39;12390;-59
2024/02/19 05:53:09;;;;;;;;;9.75;8.50;;;;;;;;6490208;46;8900;-59
2024/02/19 05:59:11;;;;;;;;;11.25;9.00;;;;;;;;6489768;39;8856;-61
2024/02/19 06:05:15;;;;;;;;;14.00;10.50;;;;;;;;6491471;31;8923;-59
2024/02/19 06:11:25;;;;;;;;;16.75;12.00;;;;;;;;6489987;39;8918;-61
2024/02/19 06:17:28;;;;;;;;;13.75;12.00;;;;;;;;6491474;39;8903;-60
2024/02/19 06:23:32;;;;;;;;;12.25;9.50;;;;;;;;6493256;39;9402;-60
2024/02/19 06:29:35;;;;;;;;;12.25;10.00;;;;;;;;6492083;31;8904;-60
2024/02/19 06:35:42;;;;;;;;;9.00;9.00;;;;;;;;6492317;46;8882;-57
2024/02/19 06:41:46;;;;;;;;;14.25;13.00;;;;;;;;6491632;46;8987;-60
2024/02/19 06:47:49;;;;;;;;;12.25;9.00;;;;;;;;6491404;46;8867;-60
2024/02/19 06:53:51;;;;;;;;;17.00;13.00;;;;;;;;6491765;39;8911;-62
2024/02/19 06:59:57;;;;;;;;;14.25;12.75;;;;;;;;6490633;39;9620;-62
2024/02/19 07:05:59;;;;;;;;;10.25;10.00;;;;;;;;6490894;46;9055;-59
2024/02/19 07:12:08;;;;;;;;;16.25;12.25;;;;;;;;6488656;46;9031;-60
2024/02/19 07:18:12;;;;;;;;;13.50;11.00;;;;;;;;6492240;39;9018;-60
2024/02/19 07:24:15;;;;;;;;;13.00;13.00;;;;;;;;6492359;46;8968;-60
2024/02/19 07:30:18;;;;;;;;;16.50;14.00;;;;;;;;6492980;39;10002;-60
2024/02/19 07:36:23;;;;;;;;;14.00;14.00;;;;;;;;6492612;31;8862;-60
2024/02/19 07:42:26;;;;;;;;;10.75;10.75;;;;;;;;6492060;31;8933;-59
2024/02/19 07:48:30;;;;;;;;;16.00;14.67;;;;;;;;6492151;39;8956;-60
2024/02/19 07:54:35;;;;;;;;;14.50;12.00;;;;;;;;6491659;46;9114;-64
2024/02/19 08:00:38;;;;;;;;;23.50;20.25;;;;;;;;6490974;39;8916;-63
2024/02/19 08:06:44;;;;;;;;;13.50;10.50;;;;;;;;6492142;46;8947;-63
2024/02/19 08:12:53;;;;;;;;;12.50;12.50;;;;;;;;6488563;31;8920;-61
2024/02/19 08:18:58;;;;;;;;;22.50;18.00;;;;;;;;6490562;39;8967;-63
2024/02/19 08:25:06;;;;;;;;;16.25;14.75;;;;;;;;6491852;46;8985;-61
2024/02/19 08:31:10;;;;;;;;;15.75;14.00;;;;;;;;6491562;39;8923;-62
2024/02/19 08:37:18;;;;;;;;;15.75;14.00;;;;;;;;6491910;39;8885;-62
2024/02/19 08:43:20;;;;;;;;;12.00;11.00;;;;;;;;6490456;31;9143;-61
2024/02/19 08:49:25;;;;;;;;;10.00;9.00;;;;;;;;6490374;39;9100;-61
2024/02/19 08:55:30;;;;;;;;;17.75;16.00;;;;;;;;6488304;39;8946;-63
2024/02/19 09:01:34;;;;;;;;;13.00;12.50;;;;;;;;6487398;39;9070;-61
2024/02/19 09:07:38;;;;;;;;;16.00;14.75;;;;;;;;6489777;31;8956;-61
2024/02/19 09:13:41;;;;;;;;;23.75;22.00;;;;;;;;6489290;31;9063;-61
2024/02/19 09:19:48;;;;;;;;;21.75;20.50;;;;;;;;6488649;46;8963;-64
2024/02/19 09:25:52;;;;;;;;;61.75;48.25;;;;;;;;6491101;39;8896;-61
2024/02/19 09:31:57;;;;;;;;;67.00;50.75;;;;;;;;6488800;39;8937;-62
2024/02/19 09:38:02;;;;;;;;;59.00;47.50;;;;;;;;6488230;46;8920;-63
2024/02/19 09:44:08;;;;;;;;;17.00;13.50;;;;;;;;6488266;31;8937;-61
2024/02/19 09:50:13;;;;;;;;;14.00;12.25;;;;;;;;6488863;39;8909;-61
2024/02/19 09:56:22;;;;;;;;;18.50;16.00;;;;;;;;6491328;31;8947;-62
2024/02/19 10:02:24;;;;;;;;;13.75;13.75;;;;;;;;6489375;39;8983;-62
2024/02/19 10:08:26;;;;;;;;;17.00;14.50;;;;;;;;6487638;39;8953;-62
2024/02/19 10:14:30;;;;;;;;;16.50;15.00;;;;;;;;6488817;39;9068;-62
2024/02/19 10:20:41;;;;;;;;;12.50;11.75;;;;;;;;6491607;31;9019;-63
2024/02/19 10:26:49;;;;;;;;;15.00;11.75;;;;;;;;6492149;39;8889;-62
2024/02/19 10:32:53;;;;;;;;;15.25;13.00;;;;;;;;6490078;39;8975;-61
2024/02/19 10:38:58;;;;;;;;;15.25;14.50;;;;;;;;6491607;39;8866;-61
2024/02/19 10:45:01;;;;;;;;;21.75;18.50;;;;;;;;6491404;39;8938;-61
2024/02/19 10:51:07;;;;;;;;;18.25;16.00;;;;;;;;6490784;31;8881;-60
2024/02/19 10:57:18;;;;;;;;;17.25;14.25;;;;;;;;6489922;47;8931;-63
2024/02/19 11:03:20;;;;;;;;;16.00;16.00;;;;;;;;6488730;39;9027;-61
2024/02/19 11:09:31;;;;;;;;;15.00;12.50;;;;;;;;6489699;39;8932;-61
2024/02/19 11:15:42;;;;;;;;;18.75;18.75;;;;;;;;6490830;46;8971;-64
2024/02/19 11:21:46;;;;;;;;;27.75;27.75;;;;;;;;6488694;46;8913;-62
2024/02/19 11:27:50;;;;;;;;;25.00;22.00;;;;;;;;6489301;39;8952;-60
2024/02/19 11:33:58;;;;;;;;;18.50;16.50;;;;;;;;6489716;39;8932;-61
2024/02/19 11:40:00;;;;;;;;;18.00;18.00;;;;;;;;6489461;39;9661;-62
2024/02/19 11:46:05;;;;;;;;;26.00;24.75;;;;;;;;6487364;39;8967;-60
2024/02/19 11:52:11;;;;;;;;;41.25;36.50;;;;;;;;6488943;31;9662;-61
2024/02/19 11:58:15;;;;;;;;;37.50;35.50;;;;;;;;6488567;39;8921;-60
2024/02/19 12:04:18;;;;;;;;;24.00;18.75;;;;;;;;6488421;31;9000;-61
2024/02/19 12:10:20;;;;;;;;;19.25;18.00;;;;;;;;6489108;39;8980;-61
2024/02/19 12:16:31;;;;;;;;;26.75;23.00;;;;;;;;6489037;47;8994;-61
2024/02/19 12:22:35;;;;;;;;;21.50;18.25;;;;;;;;6487611;46;8948;-61
2024/02/19 12:28:38;;;;;;;;;29.25;25.25;;;;;;;;6489127;39;9872;-62
2024/02/19 12:34:44;;;;;;;;;35.25;33.00;;;;;;;;6488228;39;9146;-61
2024/02/19 12:40:47;;;;;;;;;22.75;19.50;;;;;;;;6487913;46;8989;-62
2024/02/19 12:46:50;;;;;;;;;26.75;24.75;;;;;;;;6481237;31;8983;-60
2024/02/19 12:52:55;;;;;;;;;22.25;21.75;;;;;;;;6485405;39;9566;-63
2024/02/19 12:58:59;;;;;;;;;21.50;18.75;;;;;;;;6487495;39;9062;-60
2024/02/19 13:05:02;;;;;;;;;24.00;20.50;;;;;;;;6488291;39;9682;-61
2024/02/19 13:11:08;;;;;;;;;24.50;19.50;;;;;;;;6489071;39;8950;-63
2024/02/19 13:17:17;;;;;;;;;22.50;21.00;;;;;;;;6487633;46;8968;-62
2024/02/19 13:23:28;;;;;;;;;23.75;20.50;;;;;;;;6488332;39;8979;-60
2024/02/19 13:29:33;;;;;;;;;22.00;22.00;;;;;;;;6487394;39;9045;-61
2024/02/19 13:35:37;;;;;;;;;24.25;22.75;;;;;;;;6487485;39;8987;-61
2024/02/19 13:41:42;;;;;;;;;22.00;20.25;;;;;;;;6486956;46;9023;-61
2024/02/19 13:47:47;;;;;;;;;21.75;19.75;;;;;;;;6487378;39;9630;-61
2024/02/19 13:53:51;;;;;;;;;34.75;33.00;;;;;;;;6487654;39;8971;-62
2024/02/19 13:59:55;;;;;;;;;22.00;19.75;;;;;;;;6487957;39;9596;-61
2024/02/19 14:05:58;;;;;;;;;35.50;29.00;;;;;;;;6486439;39;9042;-61
2024/02/19 14:12:01;;;;;;;;;23.00;21.25;;;;;;;;6486861;31;8964;-61
2024/02/19 14:18:04;;;;;;;;;29.00;27.50;;;;;;;;6488277;47;8999;-61
2024/02/19 14:24:07;;;;;;;;;21.50;19.25;;;;;;;;6487897;39;9672;-61
2024/02/19 14:30:12;;;;;;;;;35.25;28.25;;;;;;;;6488070;39;9031;-62
2024/02/19 14:36:15;;;;;;;;;26.75;23.50;;;;;;;;6483444;31;8998;-61
2024/02/19 14:42:22;;;;;;;;;25.00;22.75;;;;;;;;6483744;39;9057;-59
2024/02/19 14:48:25;;;;;;;;;56.50;45.50;;;;;;;;6487748;39;8966;-60
2024/02/19 14:54:29;;;;;;;;;21.00;21.00;;;;;;;;6490963;31;8931;-62
2024/02/19 15:00:34;;;;;;;;;29.00;26.75;;;;;;;;6491625;31;9089;-62
2024/02/19 15:06:37;;;;;;;;;37.25;30.25;;;;;;;;6490521;46;8955;-59
2024/02/19 15:12:41;;;;;;;;;29.25;27.75;;;;;;;;6490392;46;8972;-61
2024/02/19 15:18:43;;;;;;;;;23.25;21.50;;;;;;;;6490564;46;8959;-62
2024/02/19 15:24:46;;;;;;;;;26.50;24.00;;;;;;;;6490156;39;9046;-61
2024/02/19 15:30:48;;;;;;;;;30.75;26.00;;;;;;;;6491211;39;8927;-62
2024/02/19 15:36:51;;;;;;;;;23.50;21.75;;;;;;;;6490747;31;9049;-62
2024/02/19 15:42:57;;;;;;;;;26.75;23.00;;;;;;;;6490563;39;8927;-62
2024/02/19 15:49:00;;;;;;;;;23.25;21.75;;;;;;;;6490541;39;9018;-62
2024/02/19 15:55:05;;;;;;;;;31.00;24.50;;;;;;;;6489135;46;8999;-63
2024/02/19 16:01:09;;;;;;;;;28.50;26.75;;;;;;;;6490914;31;8955;-62
2024/02/19 16:07:14;;;;;;;;;22.25;22.25;;;;;;;;6489738;46;8959;-61
2024/02/19 16:13:22;;;;;;;;;25.25;19.00;;;;;;;;6490111;46;8911;-62
2024/02/19 16:19:25;;;;;;;;;26.25;23.75;;;;;;;;6490522;31;8985;-61
2024/02/19 16:25:32;;;;;;;;;30.25;24.25;;;;;;;;6489627;39;8955;-63
2024/02/19 16:31:35;;;;;;;;;34.75;30.25;;;;;;;;6490275;31;8923;-61
2024/02/19 16:37:37;;;;;;;;;27.75;23.75;;;;;;;;6489703;31;9030;-59
2024/02/19 16:43:40;;;;;;;;;26.00;24.75;;;;;;;;6489198;39;8966;-61
2024/02/19 16:49:43;;;;;;;;;37.50;29.25;;;;;;;;6490330;39;8975;-60
2024/02/19 16:55:46;;;;;;;;;34.25;31.25;;;;;;;;6489334;39;8915;-62
2024/02/19 17:01:50;;;;;;;;;29.25;27.00;;;;;;;;6488621;39;9001;-60
2024/02/19 17:07:55;;;;;;;;;25.50;23.25;;;;;;;;6533073;31;9003;-60
2024/02/19 17:14:01;;;;;;;;;32.25;28.75;;;;;;;;6489143;39;8915;-60
2024/02/19 17:20:08;;;;;;;;;7.50;4.50;;;;;;;;6489737;39;9550;-60
2024/02/19 17:26:10;;;;;;;;;23.75;21.50;;;;;;;;6488520;39;8974;-61
2024/02/19 17:32:16;;;;;;;;;26.00;22.50;;;;;;;;6490218;39;8899;-61
2024/02/19 17:38:21;;;;;;;;;25.75;24.00;;;;;;;;6489353;39;9705;-59
2024/02/19 17:44:24;;;;;;;;;30.00;27.00;;;;;;;;6488548;39;8871;-61
2024/02/19 17:50:27;;;;;;;;;31.00;27.75;;;;;;;;6488138;39;9590;-61
2024/02/19 17:56:30;;;;;;;;;29.25;26.75;;;;;;;;6489448;31;9517;-62
2024/02/19 18:02:32;;;;;;;;;29.00;27.00;;;;;;;;6489518;39;8892;-60
2024/02/19 18:08:35;;;;;;;;;40.50;36.50;;;;;;;;6487959;46;9044;-61
2024/02/19 18:14:37;;;;;;;;;47.00;42.00;;;;;;;;6488419;47;8904;-60
2024/02/19 18:20:47;;;;;;;;;46.00;41.00;;;;;;;;6490917;46;8880;-62
2024/02/19 18:26:51;;;;;;;;;60.75;45.25;;;;;;;;6491069;46;8864;-59
2024/02/19 18:32:57;;;;;;;;;44.50;37.25;;;;;;;;6492068;31;8938;-60
2024/02/19 18:39:00;;;;;;;;;41.00;35.75;;;;;;;;6491065;39;8931;-59
2024/02/19 18:45:02;;;;;;;;;26.75;26.25;;;;;;;;6490902;39;9715;-60
2024/02/19 18:51:05;;;;;;;;;27.00;26.25;;;;;;;;6490959;46;8978;-59
2024/02/19 18:57:10;;;;;;;;;28.50;25.50;;;;;;;;6490985;31;8919;-60
2024/02/19 19:03:12;;;;;;;;;33.50;32.00;;;;;;;;6491215;39;8977;-60
2024/02/19 19:09:15;;;;;;;;;26.75;23.00;;;;;;;;6490647;39;8868;-60
2024/02/19 19:15:19;;;;;;;;;38.75;33.25;;;;;;;;6490196;46;8927;-60
2024/02/19 19:21:21;;;;;;;;;27.00;25.00;;;;;;;;6491079;39;9614;-60
2024/02/19 19:27:23;;;;;;;;;30.33;25.33;;;;;;;;6490516;39;9057;-60
2024/02/19 19:33:26;;;;;;;;;29.50;25.00;;;;;;;;6491228;46;8884;-60
2024/02/19 19:39:30;;;;;;;;;31.25;26.75;;;;;;;;6488720;46;8899;-63
2024/02/19 19:45:37;;;;;;;;;27.00;25.00;;;;;;;;6490075;39;8927;-62
2024/02/19 19:51:39;;;;;;;;;21.00;18.25;;;;;;;;6489942;46;9003;-59
2024/02/19 19:57:50;;;;;;;;;25.25;22.50;;;;;;;;6491387;39;8828;-59
2024/02/19 20:03:55;;;;;;;;;25.00;21.75;;;;;;;;6491309;39;9006;-60
2024/02/19 20:09:59;;;;;;;;;33.00;28.25;;;;;;;;6491274;31;8912;-61
2024/02/19 20:16:01;;;;;;;;;30.75;24.50;;;;;;;;6490837;31;8971;-60
2024/02/19 20:22:04;;;;;;;;;23.67;22.67;;;;;;;;6489839;39;8946;-59
2024/02/19 20:28:06;;;;;;;;;29.00;23.00;;;;;;;;6489494;46;8993;-58
2024/02/19 20:34:11;;;;;;;;;24.00;23.25;;;;;;;;6491046;31;8872;-61
2024/02/19 20:40:13;;;;;;;;;26.50;19.25;;;;;;;;6489127;31;8995;-59
2024/02/19 20:46:20;;;;;;;;;31.50;30.00;;;;;;;;6490379;46;8958;-61
2024/02/19 20:52:24;;;;;;;;;31.75;29.50;;;;;;;;6489965;31;9577;-61
2024/02/19 20:58:35;;;;;;;;;27.75;26.75;;;;;;;;6489566;46;8840;-61
2024/02/19 21:04:37;;;;;;;;;32.50;25.00;;;;;;;;6489870;39;9968;-60
2024/02/19 21:10:42;;;;;;;;;28.25;26.50;;;;;;;;6489243;39;9757;-58
2024/02/19 21:16:45;;;;;;;;;29.75;26.50;;;;;;;;6490407;39;9070;-62
2024/02/19 21:22:50;;;;;;;;;33.00;30.75;;;;;;;;6488508;46;8943;-60
2024/02/19 21:28:53;;;;;;;;;26.75;24.25;;;;;;;;6489851;39;8999;-61
2024/02/19 21:34:56;;;;;;;;;30.50;30.50;;;;;;;;6490754;39;8935;-60
2024/02/19 21:41:02;;;;;;;;;33.25;30.25;;;;;;;;6488287;39;8912;-60
2024/02/19 21:47:06;;;;;;;;;28.50;27.25;;;;;;;;6490124;39;8965;-60
2024/02/19 21:53:09;;;;;;;;;34.00;30.50;;;;;;;;6488402;46;8934;-61
2024/02/19 21:59:13;;;;;;;;;33.75;28.00;;;;;;;;6488194;46;9049;-61
2024/02/19 22:05:17;;;;;;;;;23.75;21.25;;;;;;;;6489261;39;8940;-60
2024/02/19 22:11:20;;;;;;;;;26.00;21.75;;;;;;;;6489349;39;8923;-60
2024/02/19 22:17:24;;;;;;;;;33.25;30.00;;;;;;;;6488813;39;8923;-60
2024/02/19 22:23:27;;;;;;;;;30.50;28.00;;;;;;;;6489863;39;8923;-62
2024/02/19 22:29:32;;;;;;;;;27.00;25.75;;;;;;;;6489071;39;8908;-60
2024/02/19 22:35:37;;;;;;;;;29.50;29.50;;;;;;;;6488381;39;8955;-61
2024/02/19 22:41:42;;;;;;;;;36.25;31.75;;;;;;;;6488540;39;8888;-60
2024/02/19 22:47:48;;;;;;;;;31.50;27.00;;;;;;;;6490231;39;8899;-60
2024/02/19 22:53:51;;;;;;;;;32.50;30.00;;;;;;;;6488250;47;8924;-60
2024/02/19 22:59:56;;;;;;;;;13.75;9.75;;;;;;;;6488055;39;8967;-61
2024/02/19 23:05:58;;;;;;;;;31.75;28.75;;;;;;;;6490169;39;9585;-59
2024/02/19 23:12:04;;;;;;;;;40.00;33.75;;;;;;;;6490339;39;8899;-61
2024/02/19 23:18:07;;;;;;;;;38.25;34.00;;;;;;;;6492109;39;9103;-59
2024/02/19 23:24:11;;;;;;;;;39.25;37.00;;;;;;;;6490027;31;8920;-62
2024/02/19 23:30:13;;;;;;;;;42.75;37.00;;;;;;;;6490361;46;8923;-60
2024/02/19 23:36:16;;;;;;;;;34.00;29.50;;;;;;;;6490660;39;8923;-62
2024/02/19 23:42:20;;;;;;;;;34.75;32.25;;;;;;;;6490056;39;8908;-60
2024/02/19 23:48:22;;;;;;;;;36.25;30.00;;;;;;;;6491544;31;8950;-60
2024/02/19 23:54:25;;;;;;;;;32.00;28.25;;;;;;;;6490475;39;8920;-61
